createdAt,value
2023-03-30T00:01:36.748Z,4.30
2023-03-30T00:04:04.633Z,4.40
2023-03-30T00:06:32.408Z,4.40
2023-03-30T00:09:00.193Z,4.50
2023-03-30T00:11:28.533Z,4.50
2023-03-30T00:13:56.354Z,4.50
2023-03-30T00:16:24.010Z,4.60
2023-03-30T00:18:51.924Z,4.60
2023-03-30T00:21:21.146Z,4.60
2023-03-30T00:23:50.316Z,4.70
2023-03-30T00:26:18.376Z,4.80
2023-03-30T00:28:46.792Z,4.80
2023-03-30T00:31:14.818Z,4.90
2023-03-30T00:33:46.953Z,4.80
2023-03-30T00:36:16.054Z,4.80
2023-03-30T00:38:44.274Z,4.70
2023-03-30T00:41:12.746Z,4.70
2023-03-30T00:44:34.248Z,4.70
2023-03-30T00:47:01.901Z,4.60
2023-03-30T00:49:32.043Z,4.50
2023-03-30T00:52:00.985Z,4.50
2023-03-30T00:54:28.987Z,4.60
2023-03-30T00:56:57.078Z,4.50
2023-03-30T00:59:24.918Z,4.60
2023-03-30T01:01:52.707Z,4.60
2023-03-30T01:04:20.993Z,4.50
2023-03-30T01:06:49.694Z,4.60
2023-03-30T01:09:19.078Z,4.50
2023-03-30T01:11:47.148Z,4.60
2023-03-30T01:14:16.438Z,4.60
2023-03-30T01:17:22.570Z,4.60
2023-03-30T01:20:17.049Z,4.60
2023-03-30T01:23:06.096Z,4.50
2023-03-30T01:25:45.995Z,4.50
2023-03-30T01:28:35.181Z,4.50
2023-03-30T01:31:20.496Z,4.40
2023-03-30T01:34:20.232Z,4.50
2023-03-30T01:37:23.162Z,4.40
2023-03-30T01:39:59.208Z,4.40
2023-03-30T01:42:41.744Z,4.40
2023-03-30T01:45:12.040Z,4.40
2023-03-30T01:47:58.260Z,4.40
2023-03-30T01:50:33.672Z,4.40
2023-03-30T01:53:16.166Z,4.40
2023-03-30T01:56:06.794Z,4.40
2023-03-30T01:58:46.060Z,4.40
2023-03-30T02:01:17.556Z,4.40
2023-03-30T02:03:50.268Z,4.40
2023-03-30T02:06:41.464Z,4.30
2023-03-30T02:09:12.960Z,4.40
2023-03-30T02:11:44.022Z,4.40
2023-03-30T02:14:16.523Z,4.40
2023-03-30T02:16:54.653Z,4.40
2023-03-30T02:19:22.648Z,4.50
2023-03-30T02:21:51.259Z,4.50
2023-03-30T02:24:25.787Z,4.50
2023-03-30T02:26:54.613Z,4.60
2023-03-30T02:29:23.360Z,4.60
2023-03-30T02:31:56.816Z,4.50
2023-03-30T02:34:39.957Z,4.50
2023-03-30T02:37:16.430Z,4.50
2023-03-30T02:39:52.996Z,4.50
2023-03-30T02:42:32.627Z,4.60
2023-03-30T02:45:12.494Z,4.50
2023-03-30T02:48:18.140Z,4.40
2023-03-30T02:51:18.800Z,4.50
2023-03-30T02:54:18.366Z,4.50
2023-03-30T02:57:39.310Z,4.50
2023-03-30T03:00:59.630Z,4.40
2023-03-30T03:03:39.208Z,4.40
2023-03-30T03:06:09.487Z,4.30
2023-03-30T03:08:47.859Z,4.30
2023-03-30T03:11:21.708Z,4.30
2023-03-30T03:13:50.064Z,4.20
2023-03-30T03:16:18.548Z,4.10
2023-03-30T03:19:05.384Z,4.20
2023-03-30T03:21:33.216Z,4.30
2023-03-30T03:24:01.876Z,4.30
2023-03-30T03:26:49.494Z,4.30
2023-03-30T03:29:17.819Z,4.30
2023-03-30T03:31:45.510Z,4.30
2023-03-30T03:34:14.423Z,4.30
2023-03-30T03:37:02.396Z,4.30
2023-03-30T03:39:33.118Z,4.10
2023-03-30T03:42:10.568Z,4.10
2023-03-30T03:44:47.216Z,4.10
2023-03-30T03:47:18.204Z,4.30
2023-03-30T03:49:47.276Z,4.30
2023-03-30T03:52:15.108Z,4.30
2023-03-30T03:54:42.663Z,4.30
2023-03-30T03:57:10.484Z,4.20
2023-03-30T03:59:38.346Z,4.20
2023-03-30T04:02:06.724Z,4.30
2023-03-30T04:04:34.529Z,4.30
2023-03-30T04:07:02.165Z,4.30
2023-03-30T04:09:29.798Z,4.40
2023-03-30T04:12:04.463Z,4.40
2023-03-30T04:14:50.973Z,4.40
2023-03-30T04:17:33.796Z,4.40
2023-03-30T04:20:19.859Z,4.40
2023-03-30T04:23:01.736Z,4.30
2023-03-30T04:25:52.352Z,4.30
2023-03-30T04:28:40.354Z,4.40
2023-03-30T04:31:47.636Z,4.40
2023-03-30T04:34:44.782Z,4.40
2023-03-30T04:37:30.473Z,4.40
2023-03-30T04:40:16.595Z,4.40
2023-03-30T04:42:53.472Z,4.40
2023-03-30T04:45:55.603Z,4.40
2023-03-30T04:48:39.942Z,4.50
2023-03-30T04:51:33.574Z,4.40
2023-03-30T04:54:19.796Z,4.30
2023-03-30T04:57:05.932Z,4.30
2023-03-30T04:59:41.058Z,4.20
2023-03-30T05:02:27.760Z,4.40
2023-03-30T05:05:16.960Z,4.40
2023-03-30T05:08:10.802Z,4.50
2023-03-30T05:11:01.229Z,4.50
2023-03-30T05:13:47.561Z,4.60
2023-03-30T05:16:34.054Z,4.70
2023-03-30T05:19:27.787Z,4.70
2023-03-30T05:22:21.285Z,4.70
2023-03-30T05:25:08.082Z,4.70
2023-03-30T05:27:50.978Z,4.80
2023-03-30T05:30:37.008Z,4.80
2023-03-30T05:33:36.911Z,4.80
2023-03-30T05:36:33.520Z,4.80
2023-03-30T05:39:16.063Z,4.70
2023-03-30T05:42:02.610Z,4.80
2023-03-30T05:44:40.504Z,4.70
2023-03-30T05:47:26.503Z,4.70
2023-03-30T05:50:27.115Z,4.70
2023-03-30T05:53:04.103Z,4.70
2023-03-30T05:55:47.895Z,4.90
2023-03-30T05:58:34.000Z,5.00
2023-03-30T06:01:20.991Z,5.00
2023-03-30T06:03:49.997Z,5.30
2023-03-30T06:06:17.982Z,5.40
2023-03-30T06:08:49.481Z,5.60
2023-03-30T06:11:21.547Z,5.90
2023-03-30T06:13:56.696Z,6.10
2023-03-30T06:16:25.712Z,6.40
2023-03-30T06:18:53.507Z,6.60
2023-03-30T06:21:22.741Z,6.40
2023-03-30T06:24:10.373Z,6.20
2023-03-30T06:26:41.206Z,6.20
2023-03-30T06:29:08.898Z,6.30
2023-03-30T06:31:37.427Z,6.40
2023-03-30T06:34:25.096Z,6.50
2023-03-30T06:36:54.025Z,6.60
2023-03-30T06:39:25.419Z,6.90
2023-03-30T06:41:53.147Z,7.10
2023-03-30T06:44:34.448Z,7.30
2023-03-30T06:47:07.689Z,7.50
2023-03-30T06:49:35.309Z,7.60
2023-03-30T06:52:21.669Z,7.40
2023-03-30T06:54:50.734Z,7.20
2023-03-30T06:57:18.349Z,7.00
2023-03-30T06:59:46.162Z,6.90
2023-03-30T07:02:23.089Z,6.80
2023-03-30T07:05:09.874Z,6.80
2023-03-30T07:07:58.414Z,6.70
2023-03-30T07:10:26.704Z,7.00
2023-03-30T07:12:56.234Z,7.00
2023-03-30T07:15:27.548Z,7.00
2023-03-30T07:17:55.881Z,6.80
2023-03-30T07:20:23.495Z,6.80
2023-03-30T07:23:07.925Z,6.70
2023-03-30T07:25:36.505Z,6.90
2023-03-30T07:28:12.492Z,7.00
2023-03-30T07:30:40.842Z,7.00
2023-03-30T07:33:10.555Z,7.20
2023-03-30T07:35:46.762Z,7.30
2023-03-30T07:38:19.311Z,7.40
2023-03-30T07:40:52.748Z,7.50
2023-03-30T07:43:22.412Z,7.50
2023-03-30T07:45:51.104Z,7.40
2023-03-30T07:48:25.472Z,7.60
2023-03-30T07:51:04.464Z,7.80
2023-03-30T07:53:37.086Z,7.90
2023-03-30T07:56:12.236Z,7.90
2023-03-30T07:58:48.096Z,7.90
2023-03-30T08:01:17.905Z,8.20
2023-03-30T08:03:51.632Z,8.40
2023-03-30T08:06:19.697Z,8.30
2023-03-30T08:08:49.453Z,8.00
2023-03-30T08:11:17.226Z,7.80
2023-03-30T08:13:45.032Z,7.80
2023-03-30T08:16:12.862Z,7.70
2023-03-30T08:18:43.212Z,7.70
2023-03-30T08:21:11.213Z,7.80
2023-03-30T08:23:38.962Z,7.80
2023-03-30T08:26:06.583Z,7.70
2023-03-30T08:28:34.248Z,7.70
2023-03-30T08:31:06.601Z,7.70
2023-03-30T08:33:35.147Z,7.80
2023-03-30T08:36:03.408Z,7.90
2023-03-30T08:38:31.260Z,7.90
2023-03-30T08:40:59.136Z,8.00
2023-03-30T08:43:29.568Z,8.20
2023-03-30T08:46:00.649Z,8.50
2023-03-30T08:48:37.739Z,8.50
2023-03-30T08:51:25.677Z,8.50
2023-03-30T08:54:08.908Z,8.50
2023-03-30T08:56:43.116Z,8.80
2023-03-30T08:59:38.531Z,8.80
2023-03-30T09:02:37.957Z,9.00
2023-03-30T09:05:23.127Z,9.10
2023-03-30T09:08:00.534Z,9.30
2023-03-30T09:10:31.912Z,8.70
2023-03-30T09:13:02.714Z,8.80
2023-03-30T09:15:39.701Z,8.70
2023-03-30T09:18:31.308Z,8.80
2023-03-30T09:21:01.301Z,8.80
2023-03-30T09:23:31.992Z,8.80
2023-03-30T09:26:19.244Z,8.80
2023-03-30T09:28:56.225Z,8.90
2023-03-30T09:31:33.385Z,8.80
2023-03-30T09:34:08.479Z,9.00
2023-03-30T09:37:04.887Z,9.10
2023-03-30T09:39:35.494Z,9.50
2023-03-30T09:42:24.760Z,9.50
2023-03-30T09:45:13.783Z,9.30
2023-03-30T09:47:42.536Z,9.30
2023-03-30T09:50:16.713Z,9.40
2023-03-30T09:52:57.549Z,9.20
2023-03-30T09:55:29.892Z,9.10
2023-03-30T09:58:31.168Z,9.00
2023-03-30T10:01:14.779Z,9.10
2023-03-30T10:03:44.272Z,9.10
2023-03-30T10:06:17.921Z,9.20
2023-03-30T10:08:55.557Z,9.30
2023-03-30T10:11:41.307Z,9.40
2023-03-30T10:14:30.469Z,9.60
2023-03-30T10:16:59.641Z,9.50
2023-03-30T10:19:28.427Z,9.50
2023-03-30T10:21:58.964Z,9.80
2023-03-30T10:24:29.796Z,10.00
2023-03-30T10:27:11.743Z,10.20
2023-03-30T10:29:44.659Z,10.20
2023-03-30T10:32:14.989Z,10.20
2023-03-30T10:34:55.895Z,10.20
2023-03-30T10:37:34.368Z,10.10
2023-03-30T10:40:11.321Z,10.10
2023-03-30T10:42:41.117Z,10.20
2023-03-30T10:45:19.479Z,10.30
2023-03-30T10:48:04.037Z,10.20
2023-03-30T10:50:50.241Z,10.30
2023-03-30T10:53:23.735Z,10.30
2023-03-30T10:55:57.023Z,10.30
2023-03-30T10:58:45.568Z,10.40
2023-03-30T11:01:47.769Z,10.30
2023-03-30T11:04:43.943Z,9.80
2023-03-30T11:07:51.904Z,9.80
2023-03-30T11:10:37.253Z,9.70
2023-03-30T11:13:17.790Z,9.80
2023-03-30T11:15:55.061Z,9.70
2023-03-30T11:18:32.316Z,9.70
2023-03-30T11:21:15.668Z,9.80
2023-03-30T11:23:57.555Z,9.90
2023-03-30T11:26:36.240Z,10.10
2023-03-30T11:29:28.190Z,10.10
2023-03-30T11:32:08.270Z,10.10
2023-03-30T11:34:53.593Z,10.10
2023-03-30T11:38:01.612Z,10.40
2023-03-30T11:40:41.111Z,10.40
2023-03-30T11:43:11.910Z,10.50
2023-03-30T11:45:48.711Z,10.90
2023-03-30T11:48:29.338Z,11.20
2023-03-30T11:51:22.714Z,11.20
2023-03-30T11:54:26.307Z,11.30
2023-03-30T11:57:17.628Z,11.60
2023-03-30T11:59:52.938Z,11.70
2023-03-30T12:02:56.161Z,11.80
2023-03-30T12:05:23.882Z,11.60
2023-03-30T12:08:11.010Z,11.70
2023-03-30T12:10:44.751Z,11.50
2023-03-30T12:13:19.211Z,11.60
2023-03-30T12:15:55.904Z,11.80
2023-03-30T12:18:40.058Z,11.90
2023-03-30T12:21:26.004Z,11.90
2023-03-30T12:24:02.792Z,11.80
2023-03-30T12:26:34.667Z,11.60
2023-03-30T12:32:03.627Z,11.60
2023-03-30T12:34:40.725Z,11.60
2023-03-30T12:37:30.378Z,11.70
2023-03-30T12:40:09.764Z,11.80
2023-03-30T12:42:47.073Z,11.90
2023-03-30T12:45:34.664Z,12.00
2023-03-30T12:48:22.251Z,12.00
2023-03-30T12:50:57.258Z,12.00
2023-03-30T12:53:46.339Z,12.10
2023-03-30T12:56:41.368Z,12.00
2023-03-30T12:59:31.091Z,11.70
2023-03-30T13:02:17.531Z,11.80
2023-03-30T13:04:49.271Z,11.70
2023-03-30T13:07:24.641Z,11.70
2023-03-30T13:10:20.341Z,11.60
2023-03-30T13:12:49.799Z,11.60
2023-03-30T13:15:17.383Z,11.50
2023-03-30T13:17:56.248Z,11.70
2023-03-30T13:20:57.326Z,11.70
2023-03-30T13:23:34.001Z,11.60
2023-03-30T13:29:08.310Z,11.40
2023-03-30T13:31:51.261Z,11.50
2023-03-30T13:34:44.974Z,11.50
2023-03-30T13:37:48.605Z,11.50
2023-03-30T13:40:39.599Z,11.50
2023-03-30T13:43:39.501Z,11.50
2023-03-30T13:46:31.460Z,11.50
2023-03-30T13:49:36.979Z,11.50
2023-03-30T13:52:43.186Z,11.50
2023-03-30T13:55:23.730Z,11.50
2023-03-30T13:57:58.773Z,11.50
2023-03-30T14:00:33.413Z,11.20
2023-03-30T14:03:31.010Z,11.40
2023-03-30T14:06:03.685Z,11.40
2023-03-30T14:08:36.939Z,11.40
2023-03-30T14:11:18.426Z,11.30
2023-03-30T14:13:49.354Z,11.30
2023-03-30T14:16:25.933Z,11.40
2023-03-30T14:19:08.143Z,11.40
2023-03-30T14:21:38.018Z,11.40
2023-03-30T14:24:06.315Z,11.40
2023-03-30T14:26:39.396Z,11.50
2023-03-30T14:29:24.621Z,11.50
2023-03-30T14:32:07.481Z,11.60
2023-03-30T14:34:36.233Z,11.50
2023-03-30T14:37:07.766Z,11.60
2023-03-30T14:39:51.987Z,11.60
2023-03-30T14:42:22.525Z,11.70
2023-03-30T14:44:53.708Z,11.60
2023-03-30T14:47:25.209Z,11.60
2023-03-30T14:49:58.795Z,11.50
2023-03-30T14:52:39.194Z,11.60
2023-03-30T14:55:15.958Z,11.60
2023-03-30T14:57:46.948Z,11.60
2023-03-30T15:00:23.209Z,11.50
2023-03-30T15:03:02.279Z,11.50
2023-03-30T15:05:41.739Z,11.50
2023-03-30T15:08:26.842Z,11.50
2023-03-30T15:10:57.188Z,11.50
2023-03-30T15:13:39.185Z,11.50
2023-03-30T15:16:07.713Z,11.40
2023-03-30T15:18:36.905Z,11.40
2023-03-30T15:21:05.638Z,11.40
2023-03-30T15:23:41.373Z,11.40
2023-03-30T15:26:10.010Z,11.40
2023-03-30T15:28:53.676Z,11.40
2023-03-30T15:31:21.566Z,11.30
2023-03-30T15:33:55.133Z,11.30
2023-03-30T15:36:25.910Z,11.30
2023-03-30T15:38:56.325Z,11.30
2023-03-30T15:41:44.118Z,11.20
2023-03-30T15:44:20.100Z,11.20
2023-03-30T15:46:54.721Z,11.10
2023-03-30T15:49:53.615Z,10.90
2023-03-30T15:52:41.820Z,10.80
2023-03-30T15:55:27.294Z,10.70
2023-03-30T15:57:55.365Z,10.60
2023-03-30T16:00:28.585Z,10.60
2023-03-30T16:02:58.555Z,10.30
2023-03-30T16:05:36.171Z,10.00
2023-03-30T16:08:05.540Z,10.00
2023-03-30T16:10:33.861Z,9.80
2023-03-30T16:13:02.366Z,9.80
2023-03-30T16:15:33.132Z,9.80
2023-03-30T16:18:01.467Z,9.70
2023-03-30T16:20:31.674Z,9.60
2023-03-30T16:23:00.043Z,9.60
2023-03-30T16:27:59.304Z,9.50
2023-03-30T16:30:38.929Z,9.50
2023-03-30T16:33:07.238Z,9.50
2023-03-30T16:35:35.349Z,9.50
2023-03-30T16:38:03.702Z,9.40
2023-03-30T16:40:39.028Z,9.40
2023-03-30T16:43:08.578Z,9.20
2023-03-30T16:45:36.948Z,9.20
2023-03-30T16:48:05.604Z,9.40
2023-03-30T16:50:49.298Z,9.30
2023-03-30T16:53:17.176Z,9.20
2023-03-30T16:55:45.421Z,9.00
2023-03-30T16:58:14.890Z,9.20
2023-03-30T17:00:47.402Z,9.20
2023-03-30T17:03:20.035Z,9.10
2023-03-30T17:05:48.969Z,9.20
2023-03-30T17:08:21.356Z,9.20
2023-03-30T17:10:49.720Z,9.20
2023-03-30T17:13:17.683Z,9.10
2023-03-30T17:15:46.773Z,8.90
2023-03-30T17:18:23.774Z,8.90
2023-03-30T17:20:56.587Z,9.10
2023-03-30T17:23:26.698Z,9.00
2023-03-30T17:25:56.479Z,8.80
2023-03-30T17:28:33.080Z,9.00
2023-03-30T17:31:03.641Z,8.90
2023-03-30T17:33:33.003Z,8.70
2023-03-30T17:36:04.368Z,8.80
2023-03-30T17:38:33.783Z,8.50
2023-03-30T17:41:02.834Z,8.50
2023-03-30T17:43:31.818Z,8.70
2023-03-30T17:46:00.297Z,8.70
2023-03-30T17:48:28.777Z,8.60
2023-03-30T17:50:57.173Z,8.60
2023-03-30T17:53:26.364Z,8.50
2023-03-30T17:55:54.709Z,8.50
2023-03-30T17:58:25.082Z,8.50
2023-03-30T18:00:54.391Z,8.60
2023-03-30T18:03:25.853Z,8.70
2023-03-30T18:05:55.028Z,8.70
2023-03-30T18:08:24.659Z,8.60
2023-03-30T18:10:59.458Z,8.70
2023-03-30T18:13:30.106Z,8.30
2023-03-30T18:16:00.178Z,8.30
2023-03-30T18:18:31.758Z,8.40
2023-03-30T18:21:05.789Z,8.10
2023-03-30T18:23:35.225Z,8.10
2023-03-30T18:26:10.929Z,8.30
2023-03-30T18:28:44.671Z,8.50
2023-03-30T18:31:12.868Z,8.60
2023-03-30T18:33:43.161Z,8.60
2023-03-30T18:36:14.098Z,8.40
2023-03-30T18:38:44.180Z,8.50
2023-03-30T18:41:17.369Z,8.60
2023-03-30T18:43:47.861Z,8.50
2023-03-30T18:46:17.293Z,8.50
2023-03-30T18:48:46.081Z,8.50
2023-03-30T18:51:17.734Z,8.40
2023-03-30T18:53:46.559Z,8.20
2023-03-30T18:56:16.763Z,8.10
2023-03-30T18:58:47.172Z,7.90
2023-03-30T19:01:16.253Z,7.90
2023-03-30T19:03:46.495Z,7.80
2023-03-30T19:06:27.926Z,7.90
2023-03-30T19:08:59.114Z,7.90
2023-03-30T19:11:31.432Z,7.90
2023-03-30T19:14:02.591Z,7.80
2023-03-30T19:16:31.686Z,7.60
2023-03-30T19:19:01.830Z,7.70
2023-03-30T19:21:30.253Z,7.80
2023-03-30T19:23:59.068Z,7.60
2023-03-30T19:26:27.987Z,7.30
2023-03-30T19:28:56.893Z,7.70
2023-03-30T19:31:27.899Z,7.50
2023-03-30T19:33:58.693Z,7.50
2023-03-30T19:36:28.352Z,7.50
2023-03-30T19:38:57.109Z,7.60
2023-03-30T19:41:28.096Z,7.80
2023-03-30T19:43:57.018Z,7.70
2023-03-30T19:46:26.932Z,7.70
2023-03-30T19:48:55.663Z,7.80
2023-03-30T19:51:26.050Z,7.70
2023-03-30T19:54:01.889Z,7.70
2023-03-30T19:56:30.612Z,7.40
2023-03-30T19:59:00.445Z,7.60
2023-03-30T20:01:29.101Z,7.60
2023-03-30T20:04:00.216Z,7.70
2023-03-30T20:06:29.897Z,7.80
2023-03-30T20:08:59.491Z,7.70
2023-03-30T20:11:28.414Z,7.70
2023-03-30T20:13:56.810Z,7.60
2023-03-30T20:16:26.301Z,7.60
2023-03-30T20:18:55.619Z,7.50
2023-03-30T20:21:26.432Z,7.50
2023-03-30T20:23:56.269Z,7.50
2023-03-30T20:26:24.700Z,7.60
2023-03-30T20:28:52.731Z,7.50
2023-03-30T20:31:20.858Z,7.60
2023-03-30T20:33:48.825Z,7.60
2023-03-30T20:36:16.654Z,7.50
2023-03-30T20:38:47.249Z,7.60
2023-03-30T20:41:17.094Z,7.40
2023-03-30T20:43:56.826Z,7.40
2023-03-30T20:46:26.148Z,7.50
2023-03-30T20:49:02.044Z,7.40
2023-03-30T20:51:30.133Z,7.30
2023-03-30T20:53:58.110Z,7.40
2023-03-30T20:56:28.301Z,7.30
2023-03-30T20:58:56.688Z,7.30
2023-03-30T21:01:27.376Z,7.20
2023-03-30T21:03:57.919Z,7.30
2023-03-30T21:06:28.348Z,7.20
2023-03-30T21:08:58.824Z,7.30
2023-03-30T21:11:27.408Z,7.20
2023-03-30T21:13:56.717Z,7.20
2023-03-30T21:16:25.851Z,7.20
2023-03-30T21:18:53.976Z,7.00
2023-03-30T21:21:21.923Z,7.00
2023-03-30T21:23:49.644Z,6.90
2023-03-30T21:26:19.807Z,7.00
2023-03-30T21:28:47.684Z,7.00
2023-03-30T21:31:16.744Z,7.00
2023-03-30T21:33:45.064Z,7.10
2023-03-30T21:36:13.376Z,7.10
2023-03-30T21:38:41.098Z,7.10
2023-03-30T21:41:17.155Z,7.10
2023-03-30T21:43:47.665Z,6.90
2023-03-30T21:46:18.278Z,7.00
2023-03-30T21:48:47.090Z,6.80
2023-03-30T21:51:14.791Z,6.80
2023-03-30T21:53:44.101Z,6.90
2023-03-30T21:56:12.842Z,6.80
2023-03-30T21:58:40.789Z,6.80
2023-03-30T22:01:12.254Z,6.80
2023-03-30T22:03:45.995Z,6.80
2023-03-30T22:06:16.391Z,6.80
2023-03-30T22:08:45.569Z,6.90
2023-03-30T22:11:16.793Z,6.90
2023-03-30T22:13:46.814Z,6.90
2023-03-30T22:16:24.476Z,6.90
2023-03-30T22:18:52.599Z,7.00
2023-03-30T22:21:24.108Z,6.90
2023-03-30T22:23:54.982Z,6.90
2023-03-30T22:26:23.294Z,6.90
2023-03-30T22:28:51.093Z,6.80
2023-03-30T22:31:18.973Z,6.90
2023-03-30T22:33:47.275Z,6.90
2023-03-30T22:36:33.341Z,6.80
2023-03-30T22:39:02.717Z,6.70
2023-03-30T22:41:30.778Z,6.80
2023-03-30T22:43:58.678Z,6.80
2023-03-30T22:46:27.602Z,6.80
2023-03-30T22:48:58.191Z,6.80
2023-03-30T22:51:26.750Z,6.80
2023-03-30T22:53:59.562Z,6.90
2023-03-30T22:56:29.663Z,6.70
2023-03-30T22:58:59.005Z,6.80
2023-03-30T23:01:29.277Z,6.90
2023-03-30T23:03:59.831Z,6.80
2023-03-30T23:06:27.787Z,6.70
2023-03-30T23:08:55.439Z,6.80
2023-03-30T23:11:23.735Z,6.70
2023-03-30T23:13:52.880Z,6.80
2023-03-30T23:16:20.894Z,6.80
2023-03-30T23:18:52.339Z,6.70
2023-03-30T23:21:22.400Z,6.80
2023-03-30T23:23:50.980Z,6.90
2023-03-30T23:26:19.614Z,6.80
2023-03-30T23:28:48.036Z,6.80
2023-03-30T23:31:18.147Z,6.80
2023-03-30T23:33:46.026Z,6.70
2023-03-30T23:36:14.247Z,6.70
2023-03-30T23:38:43.032Z,6.40
2023-03-30T23:41:13.316Z,6.40
2023-03-30T23:43:41.084Z,6.50
2023-03-30T23:46:10.100Z,6.60
2023-03-30T23:48:38.432Z,6.70
2023-03-30T23:51:06.843Z,6.70
2023-03-30T23:53:34.677Z,6.70
2023-03-30T23:56:06.627Z,6.60
2023-03-30T23:58:34.638Z,6.70
